Pearlhaven, Mississippi
Current Conditions -  °F | °C
As of 2:55 PM on Tuesday 27 Jan 2015 (Local Time) from K1R7 Reporting Station
Clear Clear  
Wind Chill: 70°   Ceiling: Unl
Heat Index: 70°   Visibility: NA
Dew Point: 32°   Wind: 10mph
Humidity: 25%   Direction: 310°NW
Pressure: 30.09"   Gusts: NA
Location:  31.5898°N, 90.4722°W
Report Text: K1R7 272055Z AUTO 31009KT CLR 21/00 A3009 RMK AO2
Loading
Personal Weather Stations






























Interactive Weather Map New forecast layout! Learn more

10-Day Weather Forecast

Advertisements
Track Severe Weather on mobile